Santa Monica, CA

1:56 PM PDT on October 01, 2016 (GMT -0700)
Santa Monica Municipal | | Change Station

Elev 174 ft 34.02 °N, 118.45 °W | Updated 5 minutes ago

Clear
Clear
75 °F
Feels Like 75 °F
N
9
Wind Variable Wind from WSW

Today
High -- | Low -- °F
--% Chance of Precip.
Yesterday
High -- | Low -- °F
Precip. -- in
Pressure 29.95 in
Visibility 10.0 miles
Clouds Clear
Dew Point 63 °F
Humidity 66%
Rainfall 0.00 in
Snow Depth Not available.
6:48 AM 6:37 PM
New Moon, 1% visible
METAR KSMO 012051Z 24008KT 10SM CLR 24/17 A2995 RMK AO2 SLP140 T02390172 58019
Pressure 29.95 in
Visibility 10.0 miles
Clouds Clear
Dew Point 63 °F
Humidity 66%
Rainfall 0.00 in
Snow Depth Not available.
6:48 AM 6:37 PM
New Moon, 1% visible
METAR KSMO 012051Z 24008KT 10SM CLR 24/17 A2995 RMK AO2 SLP140 T02390172 58019

10-Day Weather Forecast

Almanac

Astronomy

Oct. 01, 2016 Rise Set
Actual Time
Civil Twilight
Nautical Twilight
Astronomical Twilight
Moon
Length of Visible Light
Length of Day
Tomorrow will be .
, % of the Moon is Illuminated

Today's Extremes

State Highs State Lows

Community

WunderPhotos

Upload Photos

1,943,017 photos uploaded!

WunderBlog® & News

Nearby

Air Quality

  Air Quality AQ Index Pollutant
Not available.

Snow Depth

Station Depth Elevation

Earthquake Activity

City Distance Mag. Time & Date
Minimum magnitude displayed is 2.5.

Coastal Water Temperatures

Place Temperature

Stations

Nearby Weather Stations

Station Location Temp. Windchill Dew Point Humidity Wind Precip. Elev Updated Type
                   

Watches & Warnings

There are currently no watches in effect.